createdAt,value
2018-08-03T00:01:06.524Z,99.9
2018-08-03T00:06:09.223Z,99.9
2018-08-03T00:11:11.505Z,99.9
2018-08-03T00:16:13.906Z,99.9
2018-08-03T00:21:16.475Z,99.9
2018-08-03T00:26:18.991Z,99.9
2018-08-03T00:31:21.375Z,99.9
2018-08-03T00:36:23.819Z,99.9
2018-08-03T00:41:26.422Z,99.9
2018-08-03T00:46:28.623Z,99.9
2018-08-03T00:51:31.679Z,99.9
2018-08-03T00:56:33.561Z,99.9
2018-08-03T01:01:36.089Z,99.9
2018-08-03T01:06:38.697Z,99.9
2018-08-03T01:11:41.275Z,99.9
2018-08-03T01:16:43.401Z,99.9
2018-08-03T01:21:45.835Z,99.9
2018-08-03T01:26:48.296Z,99.9
2018-08-03T01:31:50.996Z,99.9
2018-08-03T01:36:53.270Z,99.9
2018-08-03T01:41:55.649Z,99.9
2018-08-03T01:46:58.322Z,99.9
2018-08-03T01:52:00.583Z,99.9
2018-08-03T01:57:03.163Z,99.9
2018-08-03T02:02:05.662Z,99.9
2018-08-03T02:07:08.003Z,99.9
2018-08-03T02:12:10.415Z,99.9
2018-08-03T02:17:13.081Z,99.9
2018-08-03T02:22:15.632Z,99.9
2018-08-03T02:27:17.823Z,99.9
2018-08-03T02:32:20.296Z,99.9
2018-08-03T02:37:22.774Z,99.9
2018-08-03T02:42:25.219Z,99.9
2018-08-03T02:47:27.900Z,99.9
2018-08-03T02:52:30.120Z,99.9
2018-08-03T02:57:32.564Z,99.9
2018-08-03T03:02:34.993Z,99.9
2018-08-03T03:07:37.681Z,99.9
2018-08-03T03:12:39.940Z,99.9
2018-08-03T03:17:42.390Z,99.9
2018-08-03T03:22:44.873Z,99.9
2018-08-03T03:27:47.328Z,99.9
2018-08-03T03:32:49.762Z,99.9
2018-08-03T03:37:52.343Z,99.9
2018-08-03T03:42:54.708Z,99.9
2018-08-03T03:47:57.124Z,99.9
2018-08-03T03:58:02.361Z,99.9
2018-08-03T04:03:04.786Z,99.9
2018-08-03T04:08:07.118Z,99.9
2018-08-03T04:13:09.435Z,99.9
2018-08-03T04:18:11.909Z,99.9
2018-08-03T04:23:15.034Z,99.9
2018-08-03T04:28:16.845Z,99.9
2018-08-03T04:33:20.291Z,99.9
2018-08-03T04:38:21.757Z,99.9
2018-08-03T04:43:24.305Z,99.9
2018-08-03T04:48:26.649Z,99.9
2018-08-03T04:53:29.085Z,99.9
2018-08-03T04:58:31.560Z,99.9
2018-08-03T05:08:36.483Z,99.9
2018-08-03T05:13:39.087Z,99.9
2018-08-03T05:18:42.183Z,99.9
2018-08-03T05:23:43.947Z,99.9
2018-08-03T05:28:46.414Z,94.5
2018-08-03T05:33:48.774Z,63.4
2018-08-03T05:38:51.224Z,33.3
2018-08-03T05:43:53.821Z,20.3
2018-08-03T05:48:56.188Z,11.3
2018-08-03T05:53:58.915Z,5.5
2018-08-03T05:59:01.067Z,2.3
2018-08-03T06:04:03.670Z,1
2018-08-03T06:09:06.022Z,1
2018-08-03T06:14:08.539Z,1
2018-08-03T06:19:11.160Z,1
2018-08-03T06:24:13.501Z,1
2018-08-03T06:29:16.025Z,1
2018-08-03T06:34:18.289Z,1
2018-08-03T06:44:23.249Z,1
2018-08-03T06:49:25.909Z,1
2018-08-03T06:54:28.203Z,1
2018-08-03T06:59:30.697Z,1
2018-08-03T07:04:33.254Z,1
2018-08-03T07:09:35.606Z,1
2018-08-03T07:14:38.038Z,1
2018-08-03T07:19:40.686Z,1
2018-08-03T07:24:42.893Z,1
2018-08-03T07:29:45.394Z,1
2018-08-03T07:34:47.867Z,1
2018-08-03T07:39:50.351Z,1
2018-08-03T07:44:53.107Z,1
2018-08-03T07:49:55.675Z,1
2018-08-03T08:00:00.180Z,1
2018-08-03T08:05:02.852Z,1
2018-08-03T08:10:05.064Z,1
2018-08-03T08:15:07.785Z,1
2018-08-03T08:20:10.559Z,1
2018-08-03T08:25:12.612Z,1
2018-08-03T08:30:15.046Z,1
2018-08-03T08:35:17.593Z,1
2018-08-03T08:40:19.801Z,1
2018-08-03T08:45:22.378Z,1
2018-08-03T08:50:24.787Z,1
2018-08-03T08:55:27.187Z,1
2018-08-03T09:00:29.656Z,1
2018-08-03T09:05:32.514Z,1
2018-08-03T09:10:34.569Z,1
2018-08-03T09:15:37.052Z,1
2018-08-03T09:25:42.071Z,1
2018-08-03T09:30:44.743Z,1
2018-08-03T09:35:46.925Z,1.2
2018-08-03T09:40:49.406Z,5.9
2018-08-03T09:45:51.807Z,10.7
2018-08-03T09:50:54.268Z,10.5
2018-08-03T09:55:56.848Z,10.5
2018-08-03T10:00:59.235Z,13.5
2018-08-03T10:06:01.686Z,9.9
2018-08-03T10:11:04.301Z,11.3
2018-08-03T10:16:06.568Z,12.3
2018-08-03T10:21:09.111Z,11.7
2018-08-03T10:26:11.773Z,10.2
2018-08-03T10:31:14.312Z,10.7
2018-08-03T10:36:16.497Z,8.9
2018-08-03T10:41:18.896Z,10.2
2018-08-03T10:46:21.366Z,10.4
2018-08-03T10:51:23.923Z,10.8
2018-08-03T10:56:26.330Z,12.2
2018-08-03T11:01:28.829Z,9.7
2018-08-03T11:06:31.227Z,9
2018-08-03T11:11:33.596Z,6.9
2018-08-03T11:16:36.346Z,5.7
2018-08-03T11:21:38.719Z,7.7
2018-08-03T11:26:40.993Z,7.9
2018-08-03T11:31:43.719Z,11.4
2018-08-03T11:36:46.158Z,12.4
2018-08-03T11:41:48.486Z,11.4
2018-08-03T11:46:51.119Z,9
2018-08-03T11:51:53.334Z,7.9
2018-08-03T11:56:55.745Z,5.9
2018-08-03T12:01:58.501Z,5.2
2018-08-03T12:07:00.675Z,4.8
2018-08-03T12:12:03.291Z,5.9
2018-08-03T12:17:05.825Z,10.5
2018-08-03T12:22:08.093Z,11.9
2018-08-03T12:27:10.625Z,14.7
2018-08-03T12:32:13.047Z,14.1
2018-08-03T12:37:16.040Z,14.3
2018-08-03T12:42:17.967Z,12.2
2018-08-03T12:47:20.585Z,11
2018-08-03T12:52:22.821Z,11
2018-08-03T12:57:25.600Z,10.7
2018-08-03T13:02:28.211Z,12
2018-08-03T13:07:30.579Z,6.7
2018-08-03T13:12:32.958Z,5
2018-08-03T13:17:35.338Z,4.9
2018-08-03T13:22:37.557Z,3.4
2018-08-03T13:27:40.233Z,2.1
2018-08-03T13:32:42.508Z,2.5
2018-08-03T13:37:45.178Z,1.5
2018-08-03T13:42:47.433Z,1.5
2018-08-03T13:47:49.918Z,1
2018-08-03T13:52:52.328Z,2.7
2018-08-03T13:57:54.995Z,7.5
2018-08-03T14:02:57.514Z,7.1
2018-08-03T14:08:00.119Z,7.9
2018-08-03T14:13:02.182Z,9
2018-08-03T14:18:04.763Z,9.2
2018-08-03T14:23:07.130Z,8.5
2018-08-03T14:28:10.109Z,8.8
2018-08-03T14:33:12.046Z,9.7
2018-08-03T14:38:14.729Z,9
2018-08-03T14:43:16.980Z,11.1
2018-08-03T14:48:19.463Z,3.3
2018-08-03T14:53:22.149Z,2
2018-08-03T14:58:24.300Z,1
2018-08-03T15:03:26.888Z,1
2018-08-03T15:08:29.275Z,1
2018-08-03T15:13:31.684Z,1
2018-08-03T15:18:34.165Z,1
2018-08-03T15:23:36.603Z,1
2018-08-03T15:28:39.184Z,1
2018-08-03T15:38:44.152Z,1
2018-08-03T15:43:46.456Z,1.2
2018-08-03T15:48:49.678Z,1
2018-08-03T15:53:51.392Z,1
2018-08-03T15:58:53.840Z,1
2018-08-03T16:03:56.499Z,1.3
2018-08-03T16:08:58.936Z,1.1
2018-08-03T16:14:01.399Z,1.3
2018-08-03T16:19:03.719Z,1
2018-08-03T16:24:06.308Z,1
2018-08-03T16:29:08.621Z,1
2018-08-03T16:34:11.033Z,1
2018-08-03T16:39:13.795Z,1
2018-08-03T16:44:16.163Z,1.3
2018-08-03T16:49:18.444Z,1.3
2018-08-03T16:54:21.114Z,1
2018-08-03T16:59:23.374Z,2
2018-08-03T17:04:25.852Z,1.1
2018-08-03T17:09:28.295Z,1.6
2018-08-03T17:14:30.693Z,1
2018-08-03T17:19:33.163Z,1.8
2018-08-03T17:24:35.641Z,1.8
2018-08-03T17:29:38.181Z,1
2018-08-03T17:34:40.534Z,2.6
2018-08-03T17:39:43.048Z,1
2018-08-03T17:44:45.452Z,1.8
2018-08-03T17:49:48.163Z,1.7
2018-08-03T17:54:50.635Z,3.3
2018-08-03T17:59:53.279Z,7.5
2018-08-03T18:04:55.295Z,10.3
2018-08-03T18:09:57.818Z,10.9
2018-08-03T18:15:00.261Z,12.4
2018-08-03T18:20:03.488Z,15
2018-08-03T18:25:05.146Z,19.9
2018-08-03T18:30:07.695Z,25.6
2018-08-03T18:40:12.790Z,35.2
2018-08-03T18:45:14.985Z,39.9
2018-08-03T18:50:17.591Z,39.8
2018-08-03T18:55:19.975Z,47.7
2018-08-03T19:00:22.996Z,53.2
2018-08-03T19:05:25.237Z,57.2
2018-08-03T19:10:27.363Z,64.9
2018-08-03T19:20:32.306Z,80.7
2018-08-03T19:25:34.781Z,83.4
2018-08-03T19:30:37.140Z,89.1
2018-08-03T19:35:39.566Z,93.8
2018-08-03T19:40:42.061Z,91.7
2018-08-03T19:45:44.604Z,93.4
2018-08-03T19:50:47.061Z,95.3
2018-08-03T19:55:49.454Z,94.4
2018-08-03T20:00:52.190Z,98.6
2018-08-03T20:05:54.314Z,98.6
2018-08-03T20:10:56.948Z,98.6
2018-08-03T20:15:59.278Z,99.7
2018-08-03T20:21:01.693Z,99.9
2018-08-03T20:26:04.225Z,99.9
2018-08-03T20:31:06.601Z,99.9
2018-08-03T20:36:09.059Z,99.9
2018-08-03T20:41:11.675Z,99.9
2018-08-03T20:46:14.024Z,99.9
2018-08-03T20:51:16.460Z,99.9
2018-08-03T20:56:18.937Z,99.9
2018-08-03T21:01:21.930Z,99.9
2018-08-03T21:06:24.080Z,99.9
2018-08-03T21:11:26.655Z,99.9
2018-08-03T21:16:28.736Z,99.9
2018-08-03T21:21:31.223Z,99.9
2018-08-03T21:26:34.077Z,99.9
2018-08-03T21:31:36.171Z,99.9
2018-08-03T21:36:38.594Z,99.9
2018-08-03T21:41:41.044Z,99.9
2018-08-03T21:46:43.534Z,99.9
2018-08-03T21:51:46.166Z,99.9
2018-08-03T21:56:48.505Z,99.9
2018-08-03T22:01:50.899Z,99.9
2018-08-03T22:06:53.698Z,99.9
2018-08-03T22:11:55.883Z,99.9
2018-08-03T22:16:58.233Z,99.9
2018-08-03T22:22:00.743Z,99.9
2018-08-03T22:27:03.236Z,99.9
2018-08-03T22:32:05.635Z,99.9
2018-08-03T22:37:08.091Z,99.9
2018-08-03T22:42:10.605Z,99.9
2018-08-03T22:47:13.351Z,99.9
2018-08-03T22:52:15.630Z,99.9
2018-08-03T22:57:18.475Z,99.9
2018-08-03T23:02:20.438Z,99.9
2018-08-03T23:07:22.905Z,99.9
2018-08-03T23:12:25.388Z,99.9
2018-08-03T23:17:28.015Z,99.9
2018-08-03T23:22:30.209Z,99.9
2018-08-03T23:27:32.669Z,99.9
2018-08-03T23:32:35.116Z,99.9
2018-08-03T23:37:37.590Z,99.9
2018-08-03T23:42:40.376Z,99.9
2018-08-03T23:47:42.521Z,99.9
2018-08-03T23:52:44.951Z,99.9
2018-08-03T23:57:47.562Z,99.9
